createdAt,value
2019-02-07T00:04:23.332Z,98268.00
2019-02-07T00:09:29.049Z,98271.00
2019-02-07T00:14:39.766Z,98259.00
2019-02-07T00:19:43.997Z,98261.00
2019-02-07T00:24:52.152Z,98237.00
2019-02-07T00:29:58.640Z,98227.00
2019-02-07T00:35:09.134Z,98223.00
2019-02-07T00:40:21.093Z,98215.00
2019-02-07T00:45:26.799Z,98217.00
2019-02-07T00:50:32.520Z,98203.00
2019-02-07T00:55:40.555Z,98199.00
2019-02-07T01:00:47.561Z,98190.00
2019-02-07T01:05:54.390Z,98170.00
2019-02-07T01:11:01.709Z,98180.00
2019-02-07T01:16:09.835Z,98174.00
2019-02-07T01:21:16.595Z,98177.00
2019-02-07T01:26:24.670Z,98182.00
2019-02-07T01:31:43.863Z,98176.00
2019-02-07T01:36:51.329Z,98156.00
2019-02-07T01:41:58.029Z,98150.00
2019-02-07T01:47:04.831Z,98143.00
2019-02-07T01:52:12.821Z,98133.00
2019-02-07T01:57:19.663Z,98104.00
2019-02-07T02:02:25.451Z,98105.00
2019-02-07T02:07:32.300Z,98107.00
2019-02-07T02:12:40.345Z,98086.00
2019-02-07T02:17:48.688Z,98079.00
2019-02-07T02:22:56.336Z,98066.00
2019-02-07T02:28:02.712Z,98047.00
2019-02-07T02:33:08.990Z,98050.00
2019-02-07T02:38:15.571Z,98043.00
2019-02-07T02:43:23.470Z,98047.00
2019-02-07T02:48:29.322Z,98028.00
2019-02-07T02:53:36.281Z,98026.00
2019-02-07T02:59:02.437Z,98021.00
2019-02-07T03:04:19.801Z,98025.00
2019-02-07T03:15:06.417Z,98001.00
2019-02-07T03:20:18.659Z,97984.00
2019-02-07T03:25:46.428Z,97976.00
2019-02-07T03:31:10.877Z,97969.00
2019-02-07T03:36:19.783Z,97961.00
2019-02-07T03:41:32.950Z,97949.00
2019-02-07T03:46:58.004Z,97949.00
2019-02-07T03:52:06.320Z,97935.00
2019-02-07T03:57:20.301Z,97931.00
2019-02-07T04:08:21.182Z,97921.00
2019-02-07T04:13:28.472Z,97916.00
2019-02-07T04:18:36.812Z,97912.00
2019-02-07T04:23:47.799Z,97919.00
2019-02-07T04:29:13.892Z,97897.00
2019-02-07T04:34:50.264Z,97891.00
2019-02-07T04:40:14.055Z,97884.00
2019-02-07T04:45:22.419Z,97887.00
2019-02-07T04:55:58.268Z,97891.00
2019-02-07T05:01:15.557Z,97898.00
2019-02-07T05:06:26.859Z,97889.00
2019-02-07T05:11:43.055Z,97877.00
2019-02-07T05:16:54.097Z,97876.00
2019-02-07T05:22:20.189Z,97875.00
2019-02-07T05:27:43.005Z,97869.00
2019-02-07T05:32:53.684Z,97863.00
2019-02-07T05:38:14.487Z,97850.00
2019-02-07T05:43:49.792Z,97842.00
2019-02-07T05:49:13.493Z,97859.00
2019-02-07T05:54:21.870Z,97867.00
2019-02-07T05:59:29.210Z,97848.00
2019-02-07T06:04:49.115Z,97851.00
2019-02-07T06:10:15.019Z,97841.00
2019-02-07T06:15:37.782Z,97840.00
2019-02-07T06:20:49.639Z,97827.00
2019-02-07T06:26:22.442Z,97834.00
2019-02-07T06:31:32.940Z,97812.00
2019-02-07T06:42:16.755Z,97802.00
2019-02-07T06:47:24.431Z,97791.00
2019-02-07T06:52:34.427Z,97788.00
2019-02-07T07:08:53.071Z,97744.00
2019-02-07T07:14:00.958Z,97738.00
2019-02-07T07:19:21.240Z,97721.00
2019-02-07T07:24:46.773Z,97711.00
2019-02-07T07:30:32.862Z,97709.00
2019-02-07T07:35:59.408Z,97708.00
2019-02-07T07:41:38.499Z,97710.00
2019-02-07T07:52:19.592Z,97696.00
2019-02-07T07:57:26.896Z,97700.00
2019-02-07T08:02:37.464Z,97697.00
2019-02-07T08:08:01.966Z,97695.00
2019-02-07T08:18:57.770Z,97683.00
2019-02-07T08:24:20.834Z,97692.00
2019-02-07T08:29:38.618Z,97676.00
2019-02-07T08:34:46.934Z,97691.00
2019-02-07T08:40:04.008Z,97680.00
2019-02-07T08:45:30.219Z,97672.00
2019-02-07T08:50:44.351Z,97693.00
2019-02-07T08:56:01.525Z,97674.00
2019-02-07T09:01:11.540Z,97682.00
2019-02-07T09:06:22.986Z,97682.00
2019-02-07T09:11:41.943Z,97675.00
2019-02-07T09:22:23.707Z,97666.00
2019-02-07T09:27:29.911Z,97654.00
2019-02-07T09:32:39.244Z,97659.00
2019-02-07T09:38:03.661Z,97655.00
2019-02-07T09:43:15.009Z,97648.00
2019-02-07T09:48:39.832Z,97640.00
2019-02-07T09:53:55.472Z,97649.00
2019-02-07T09:59:20.243Z,97644.00
2019-02-07T10:04:30.578Z,97630.00
2019-02-07T10:09:43.205Z,97634.00
2019-02-07T10:14:51.366Z,97625.00
2019-02-07T10:20:05.381Z,97630.00
2019-02-07T10:25:28.918Z,97627.00
2019-02-07T10:30:36.187Z,97644.00
2019-02-07T10:36:00.322Z,97639.00
2019-02-07T10:41:09.327Z,97636.00
2019-02-07T10:46:33.233Z,97639.00
2019-02-07T10:51:44.597Z,97642.00
2019-02-07T10:57:04.585Z,97637.00
2019-02-07T11:02:15.767Z,97622.00
2019-02-07T11:07:35.828Z,97626.00
2019-02-07T11:12:53.326Z,97630.00
2019-02-07T11:18:01.637Z,97612.00
2019-02-07T11:23:16.347Z,97603.00
2019-02-07T11:28:27.392Z,97612.00
2019-02-07T11:33:55.679Z,97608.00
2019-02-07T11:39:08.045Z,97613.00
2019-02-07T11:44:20.483Z,97609.00
2019-02-07T11:49:27.774Z,97623.00
2019-02-07T11:54:39.145Z,97618.00
2019-02-07T11:59:50.501Z,97603.00
2019-02-07T12:05:08.941Z,97598.00
2019-02-07T12:10:33.658Z,97589.00
2019-02-07T12:15:58.238Z,97591.00
2019-02-07T12:21:09.588Z,97591.00
2019-02-07T12:26:20.880Z,97573.00
2019-02-07T12:31:30.953Z,97582.00
2019-02-07T12:36:42.832Z,97568.00
2019-02-07T12:41:51.098Z,97560.00
2019-02-07T12:46:59.300Z,97557.00
2019-02-07T12:52:17.165Z,97557.00
2019-02-07T12:57:41.454Z,97553.00
2019-02-07T13:08:39.992Z,97551.00
2019-02-07T13:13:50.791Z,97537.00
2019-02-07T13:19:01.372Z,97531.00
2019-02-07T13:24:12.659Z,97543.00
2019-02-07T13:29:30.030Z,97555.00
2019-02-07T13:34:38.345Z,97565.00
2019-02-07T13:39:49.550Z,97570.00
2019-02-07T13:44:58.283Z,97559.00
2019-02-07T13:50:14.002Z,97578.00
2019-02-07T13:55:33.921Z,97570.00
2019-02-07T14:00:41.871Z,97574.00
2019-02-07T14:05:49.800Z,97581.00
2019-02-07T14:11:10.213Z,97578.00
2019-02-07T14:16:24.641Z,97584.00
2019-02-07T14:21:51.406Z,97583.00
2019-02-07T14:27:08.847Z,97569.00
2019-02-07T14:32:16.586Z,97586.00
2019-02-07T14:37:40.256Z,97596.00
2019-02-07T14:42:50.194Z,97600.00
2019-02-07T14:47:56.769Z,97584.00
2019-02-07T14:53:03.858Z,97601.00
2019-02-07T14:58:10.760Z,97587.00
2019-02-07T15:03:18.768Z,97591.00
2019-02-07T15:08:24.801Z,97590.00
2019-02-07T15:13:31.525Z,97595.00
2019-02-07T15:18:38.350Z,97594.00
2019-02-07T15:23:45.088Z,97596.00
2019-02-07T15:28:52.216Z,97593.00
2019-02-07T15:34:01.103Z,97608.00
2019-02-07T15:39:10.793Z,97597.00
2019-02-07T15:44:19.582Z,97595.00
2019-02-07T15:49:25.360Z,97601.00
2019-02-07T15:54:31.944Z,97623.00
2019-02-07T15:59:42.044Z,97631.00
2019-02-07T16:04:49.889Z,97608.00
2019-02-07T16:09:56.638Z,97612.00
2019-02-07T16:15:03.656Z,97595.00
2019-02-07T16:20:23.275Z,97602.00
2019-02-07T16:25:29.069Z,97596.00
2019-02-07T16:30:37.002Z,97598.00
2019-02-07T16:35:43.785Z,97618.00
2019-02-07T16:40:51.595Z,97624.00
2019-02-07T16:45:58.922Z,97635.00
2019-02-07T16:51:05.924Z,97632.00
2019-02-07T16:56:12.775Z,97636.00
2019-02-07T17:01:19.319Z,97639.00
2019-02-07T17:06:25.029Z,97650.00
2019-02-07T17:11:31.758Z,97652.00
2019-02-07T17:16:38.453Z,97646.00
2019-02-07T17:21:45.705Z,97644.00
2019-02-07T17:26:52.715Z,97633.00
2019-02-07T17:31:59.919Z,97646.00
2019-02-07T17:37:07.794Z,97641.00
2019-02-07T17:42:14.838Z,97668.00
2019-02-07T17:47:21.524Z,97672.00
2019-02-07T17:52:27.291Z,97673.00
2019-02-07T17:57:34.192Z,97681.00
2019-02-07T18:02:42.231Z,97682.00
2019-02-07T18:07:51.683Z,97684.00
2019-02-07T18:12:58.461Z,97686.00
2019-02-07T18:18:07.504Z,97670.00
2019-02-07T18:23:13.988Z,97681.00
2019-02-07T18:28:22.752Z,97685.00
2019-02-07T18:33:29.801Z,97669.00
2019-02-07T18:38:36.514Z,97698.00
2019-02-07T18:43:43.100Z,97696.00
2019-02-07T18:48:50.767Z,97695.00
2019-02-07T18:53:57.536Z,97674.00
2019-02-07T18:59:05.353Z,97688.00
2019-02-07T19:04:12.242Z,97702.00
2019-02-07T19:09:18.937Z,97714.00
2019-02-07T19:14:25.115Z,97732.00
2019-02-07T19:19:31.858Z,97725.00
2019-02-07T19:24:38.289Z,97733.00
2019-02-07T19:29:45.073Z,97747.00
2019-02-07T19:34:51.838Z,97753.00
2019-02-07T19:39:58.297Z,97768.00
2019-02-07T19:45:09.254Z,97767.00
2019-02-07T19:50:27.699Z,97782.00
2019-02-07T19:55:34.448Z,97804.00
2019-02-07T20:00:43.447Z,97801.00
2019-02-07T20:05:50.551Z,97819.00
2019-02-07T20:10:59.585Z,97838.00
2019-02-07T20:16:06.222Z,97817.00
2019-02-07T20:21:13.150Z,97812.00
2019-02-07T20:26:20.167Z,97815.00
2019-02-07T20:31:27.691Z,97805.00
2019-02-07T20:36:35.356Z,97828.00
2019-02-07T20:41:41.919Z,97811.00
2019-02-07T20:46:48.749Z,97824.00
2019-02-07T20:51:55.367Z,97820.00
2019-02-07T20:57:01.875Z,97826.00
2019-02-07T21:02:08.388Z,97842.00
2019-02-07T21:07:15.872Z,97836.00
2019-02-07T21:12:22.206Z,97833.00
2019-02-07T21:17:28.598Z,97839.00
2019-02-07T21:22:35.375Z,97823.00
2019-02-07T21:27:44.450Z,97832.00
2019-02-07T21:32:51.719Z,97843.00
2019-02-07T21:37:58.780Z,97846.00
2019-02-07T21:43:07.318Z,97859.00
2019-02-07T21:48:14.033Z,97850.00
2019-02-07T21:53:20.871Z,97869.00
2019-02-07T21:58:26.861Z,97862.00
2019-02-07T22:03:33.243Z,97862.00
2019-02-07T22:08:39.739Z,97878.00
2019-02-07T22:13:45.480Z,97882.00
2019-02-07T22:18:51.846Z,97885.00
2019-02-07T22:23:58.085Z,97899.00
2019-02-07T22:29:06.242Z,97913.00
2019-02-07T22:34:13.260Z,97903.00
2019-02-07T22:39:19.599Z,97915.00
2019-02-07T22:44:26.380Z,97926.00
2019-02-07T22:49:34.022Z,97913.00
2019-02-07T22:54:40.726Z,97898.00
2019-02-07T22:59:48.667Z,97912.00
2019-02-07T23:04:55.350Z,97920.00
2019-02-07T23:10:01.732Z,97915.00
2019-02-07T23:15:10.031Z,97932.00
2019-02-07T23:20:16.865Z,97936.00
2019-02-07T23:25:24.548Z,97935.00
2019-02-07T23:30:30.511Z,97942.00
2019-02-07T23:35:39.263Z,97953.00
2019-02-07T23:40:47.037Z,97938.00
2019-02-07T23:46:14.260Z,97938.00
2019-02-07T23:51:21.137Z,97920.00
2019-02-07T23:56:27.295Z,97935.00
